Terminal Aerodrome Forecast
Issued by NWS

Home | Current Version | Previous Version | Text Only | Print | Product List | Glossary On
Versions: 1 2 3 4 5 6 7 8 9 10 11 12 13 14 15
000
FTUS41 KCAR 031839 AAA
TAFFVE
TAF AMD
KFVE 031839Z 0319/0418 19018G25KT 3SM -TSRA BR BKN040CB
     FM032000 19018G25KT 5SM -SHRA BKN040
      TEMPO 0322/0402 3SM -TSRA OVC040CB
     FM040300 20008KT 2SM -SHRA OVC040
     FM040900 17005KT 2SM BR OVC008
     FM041300 16005KT P6SM OVC015
     FM041500 17006KT P6SM BKN050=

USA.gov is the U.S. government's official web portal to all federal, state and local government web resources and services.